Terminal Aerodrome Forecast
Issued by NWS

Current Version | Previous Version | Graphics & Text | Print | Product List | Glossary On
Versions: 1 2 3 4 5 6 7 8 9 10 11 12 13 14 15 16
000
FTUS41 KPBZ 190300 AAB
TAFHLG
TAF AMD
KHLG 190331Z 1904/1924 30007KT P6SM OVC006
     FM190600 29007KT P6SM OVC013
     FM191600 27008KT P6SM BKN040=

USA.gov is the U.S. government's official web portal to all federal, state and local government web resources and services.